Terminal Aerodrome Forecast
Issued by NWS Charleston, WV

Current Version | Previous Version | Graphics & Text | Print | Product List | Glossary On
Versions: 1 2 3 4 5 6 7 8 9 10 11 12 13 14 15 16 17 18 19 20 21 22 23 24 25 26 27 28 29 30
000
FTUS41 KRLX 310900 AAA
TAFPKB
TAF AMD
KPKB 310903Z 3109/0106 14003KT P6SM FEW008 BKN100
     FM311200 VRB03KT 6SM -SHRA OVC020
     FM311600 VRB03KT 3SM SHRA VCTS OVC035CB
     FM311900 21007KT 6SM -SHRA VCTS OVC040CB
     FM010000 21005KT 4SM SHRA BR OVC028
     FM010300 16004KT P6SM OVC016=

USA.gov is the U.S. government's official web portal to all federal, state and local government web resources and services.